createdAt,value
2019-05-20T00:01:19.926Z,11.97
2019-05-20T00:03:21.803Z,12.03
2019-05-20T00:05:24.188Z,12.10
2019-05-20T00:07:25.806Z,12.07
2019-05-20T00:09:28.040Z,12.05
2019-05-20T00:11:31.302Z,12.13
2019-05-20T00:13:33.973Z,12.18
2019-05-20T00:15:36.675Z,12.22
2019-05-20T00:17:38.852Z,12.23
2019-05-20T00:19:44.006Z,12.20
2019-05-20T00:21:46.444Z,12.16
2019-05-20T00:23:48.493Z,12.08
2019-05-20T00:25:51.025Z,12.12
2019-05-20T00:27:53.042Z,12.16
2019-05-20T00:29:55.229Z,12.21
2019-05-20T00:31:57.409Z,12.20
2019-05-20T00:33:59.351Z,12.21
2019-05-20T00:36:01.436Z,12.13
2019-05-20T00:38:03.679Z,12.18
2019-05-20T00:40:06.875Z,12.22
2019-05-20T00:42:09.956Z,12.21
2019-05-20T00:44:12.215Z,12.20
2019-05-20T00:46:14.275Z,12.26
2019-05-20T00:48:16.379Z,12.24
2019-05-20T00:50:18.427Z,12.27
2019-05-20T00:52:20.623Z,12.29
2019-05-20T00:54:22.781Z,12.32
2019-05-20T00:56:25.012Z,12.31
2019-05-20T00:58:27.346Z,12.37
2019-05-20T01:00:30.205Z,12.33
2019-05-20T01:02:32.200Z,12.30
2019-05-20T01:04:34.284Z,12.28
2019-05-20T01:06:36.568Z,12.28
2019-05-20T01:08:38.792Z,12.26
2019-05-20T01:10:41.098Z,12.27
2019-05-20T01:12:43.334Z,12.33
2019-05-20T01:14:45.668Z,12.36
2019-05-20T01:16:48.114Z,12.33
2019-05-20T01:18:50.093Z,12.33
2019-05-20T01:20:52.579Z,12.32
2019-05-20T01:22:55.327Z,12.27
2019-05-20T01:24:57.479Z,12.31
2019-05-20T01:26:59.484Z,12.31
2019-05-20T01:29:01.660Z,12.28
2019-05-20T01:31:03.840Z,12.27
2019-05-20T01:33:13.605Z,12.28
2019-05-20T01:35:11.614Z,12.27
2019-05-20T01:37:13.445Z,12.29
2019-05-20T01:39:15.835Z,12.31
2019-05-20T01:41:17.888Z,12.30
2019-05-20T01:43:20.201Z,12.35
2019-05-20T01:45:22.193Z,12.35
2019-05-20T01:47:24.218Z,12.38
2019-05-20T01:49:26.223Z,12.27
2019-05-20T01:51:28.238Z,12.28
2019-05-20T01:53:30.258Z,12.22
2019-05-20T01:55:32.481Z,12.30
2019-05-20T01:57:34.491Z,12.28
2019-05-20T01:59:36.556Z,12.31
2019-05-20T02:01:38.826Z,12.22
2019-05-20T02:03:41.045Z,12.28
2019-05-20T02:05:46.012Z,12.27
2019-05-20T02:07:48.030Z,12.35
2019-05-20T02:09:50.142Z,12.34
2019-05-20T02:11:52.151Z,12.33
2019-05-20T02:13:58.287Z,12.37
2019-05-20T02:16:03.885Z,12.37
2019-05-20T02:18:05.960Z,12.28
2019-05-20T02:20:08.502Z,12.37
2019-05-20T02:22:12.183Z,12.34
2019-05-20T02:24:14.297Z,12.32
2019-05-20T02:26:16.335Z,12.33
2019-05-20T02:28:18.557Z,12.30
2019-05-20T02:30:20.555Z,12.30
2019-05-20T02:32:22.597Z,12.29
2019-05-20T02:34:24.836Z,12.27
2019-05-20T02:36:26.995Z,12.30
2019-05-20T02:38:29.081Z,12.24
2019-05-20T02:40:31.066Z,12.23
2019-05-20T02:42:34.811Z,12.22
2019-05-20T02:44:36.800Z,12.24
2019-05-20T02:46:39.617Z,12.29
2019-05-20T02:48:42.517Z,12.23
2019-05-20T02:50:45.159Z,12.23
2019-05-20T02:52:47.822Z,12.30
2019-05-20T02:54:51.358Z,12.24
2019-05-20T02:56:53.468Z,12.29
2019-05-20T02:58:55.474Z,12.31
2019-05-20T03:00:57.480Z,12.32
2019-05-20T03:02:59.465Z,12.25
2019-05-20T03:05:01.779Z,12.31
2019-05-20T03:07:04.159Z,12.24
2019-05-20T03:09:06.202Z,12.26
2019-05-20T03:11:09.806Z,12.26
2019-05-20T03:13:11.823Z,12.27
2019-05-20T03:15:14.001Z,12.24
2019-05-20T03:17:15.992Z,12.24
2019-05-20T03:19:18.022Z,12.34
2019-05-20T03:21:20.065Z,12.29
2019-05-20T03:23:22.225Z,12.37
2019-05-20T03:25:24.262Z,12.40
2019-05-20T03:27:26.233Z,12.42
2019-05-20T03:29:28.538Z,12.42
2019-05-20T03:31:30.568Z,12.41
2019-05-20T03:33:32.821Z,12.42
2019-05-20T03:35:35.012Z,12.28
2019-05-20T03:37:37.169Z,12.33
2019-05-20T03:39:40.487Z,12.34
2019-05-20T03:41:42.489Z,12.31
2019-05-20T03:43:44.572Z,12.29
2019-05-20T03:45:46.705Z,12.19
2019-05-20T03:47:48.756Z,12.24
2019-05-20T03:49:50.786Z,12.32
2019-05-20T03:51:55.773Z,12.29
2019-05-20T03:53:57.823Z,12.31
2019-05-20T03:55:59.862Z,12.33
2019-05-20T03:58:01.922Z,12.36
2019-05-20T04:00:04.776Z,12.45
2019-05-20T04:02:06.745Z,12.44
2019-05-20T04:04:08.717Z,12.49
2019-05-20T04:06:10.912Z,12.44
2019-05-20T04:08:12.966Z,12.46
2019-05-20T04:10:15.165Z,12.42
2019-05-20T04:12:17.468Z,12.48
2019-05-20T04:14:22.525Z,12.50
2019-05-20T04:16:24.507Z,12.44
2019-05-20T04:18:26.515Z,12.47
2019-05-20T04:20:29.225Z,12.45
2019-05-20T04:22:32.647Z,12.48
2019-05-20T04:24:34.759Z,12.42
2019-05-20T04:26:36.809Z,12.42
2019-05-20T04:28:38.900Z,12.44
2019-05-20T04:30:41.289Z,12.32
2019-05-20T04:32:44.463Z,12.37
2019-05-20T04:34:46.764Z,12.40
2019-05-20T04:36:48.903Z,12.36
2019-05-20T04:38:53.500Z,12.36
2019-05-20T04:40:55.779Z,12.32
2019-05-20T04:42:58.207Z,12.33
2019-05-20T04:45:00.534Z,12.27
2019-05-20T04:47:03.182Z,12.28
2019-05-20T04:49:06.510Z,12.27
2019-05-20T04:51:09.176Z,12.24
2019-05-20T04:53:11.920Z,12.26
2019-05-20T04:55:14.870Z,12.18
2019-05-20T04:57:17.532Z,12.19
2019-05-20T04:59:20.416Z,12.18
2019-05-20T05:01:23.492Z,12.17
2019-05-20T05:03:28.721Z,12.15
2019-05-20T05:05:37.515Z,12.23
2019-05-20T05:07:36.348Z,12.28
2019-05-20T05:09:38.964Z,12.29
2019-05-20T05:11:41.680Z,12.25
2019-05-20T05:13:43.823Z,12.26
2019-05-20T05:15:46.739Z,12.24
2019-05-20T05:17:49.511Z,12.23
2019-05-20T05:19:52.278Z,12.21
2019-05-20T05:21:55.065Z,12.23
2019-05-20T05:23:59.637Z,12.11
2019-05-20T05:26:02.383Z,12.20
2019-05-20T05:28:05.014Z,12.15
2019-05-20T05:30:08.051Z,12.21
2019-05-20T05:32:10.505Z,12.14
2019-05-20T05:34:12.948Z,12.12
2019-05-20T05:36:16.266Z,12.16
2019-05-20T05:38:18.893Z,12.24
2019-05-20T05:40:25.483Z,12.13
2019-05-20T05:42:28.937Z,12.18
2019-05-20T05:47:07.821Z,12.12
2019-05-20T05:49:10.223Z,12.24
2019-05-20T05:51:13.200Z,12.29
2019-05-20T05:53:16.581Z,12.26
2019-05-20T05:55:19.257Z,12.29
2019-05-20T05:57:22.260Z,12.28
2019-05-20T05:59:25.056Z,12.31
2019-05-20T06:01:28.114Z,12.31
2019-05-20T06:03:30.465Z,12.32
2019-05-20T06:05:34.713Z,12.21
2019-05-20T06:07:38.426Z,12.17
2019-05-20T06:09:41.373Z,12.12
2019-05-20T06:11:44.620Z,12.12
2019-05-20T06:13:47.120Z,12.14
2019-05-20T06:15:49.853Z,12.15
2019-05-20T06:17:52.754Z,12.14
2019-05-20T06:19:55.268Z,12.16
2019-05-20T06:21:57.840Z,12.20
2019-05-20T06:24:00.836Z,12.24
2019-05-20T06:26:03.494Z,12.26
2019-05-20T06:31:01.267Z,12.32
2019-05-20T06:36:05.452Z,12.37
2019-05-20T06:38:12.613Z,12.40
2019-05-20T06:40:15.112Z,12.42
2019-05-20T06:42:19.250Z,12.37
2019-05-20T06:44:21.448Z,12.30
2019-05-20T06:46:24.267Z,12.37
2019-05-20T06:48:26.268Z,12.43
2019-05-20T06:50:29.777Z,12.41
2019-05-20T06:52:35.799Z,12.38
2019-05-20T06:54:36.055Z,12.38
2019-05-20T06:56:38.148Z,12.47
2019-05-20T06:58:41.306Z,12.41
2019-05-20T07:00:44.807Z,12.57
2019-05-20T07:02:46.788Z,12.57
2019-05-20T07:04:48.851Z,12.52
2019-05-20T07:06:51.088Z,12.56
2019-05-20T07:08:52.800Z,12.58
2019-05-20T07:10:57.477Z,12.63
2019-05-20T07:12:59.734Z,12.61
2019-05-20T07:15:02.016Z,12.69
2019-05-20T07:17:06.051Z,12.78
2019-05-20T07:19:08.187Z,12.71
2019-05-20T07:21:10.350Z,12.60
2019-05-20T07:23:12.402Z,12.50
2019-05-20T07:25:14.975Z,12.56
2019-05-20T07:27:16.729Z,12.60
2019-05-20T07:29:18.677Z,12.60
2019-05-20T07:31:21.061Z,12.68
2019-05-20T07:33:23.243Z,12.71
2019-05-20T07:35:30.647Z,12.67
2019-05-20T07:37:30.039Z,12.78
2019-05-20T07:39:31.634Z,12.83
2019-05-20T07:41:33.791Z,12.84
2019-05-20T07:43:35.799Z,12.78
2019-05-20T07:45:37.999Z,12.79
2019-05-20T07:47:40.092Z,12.88
2019-05-20T07:49:43.097Z,12.83
2019-05-20T07:51:45.774Z,12.78
2019-05-20T07:53:48.360Z,12.76
2019-05-20T07:55:53.546Z,12.59
2019-05-20T07:57:59.472Z,12.71
2019-05-20T08:00:02.201Z,12.79
2019-05-20T08:02:05.737Z,12.83
2019-05-20T08:04:07.888Z,12.88
2019-05-20T08:06:10.347Z,12.77
2019-05-20T08:08:12.475Z,12.68
2019-05-20T08:10:15.115Z,12.76
2019-05-20T08:12:17.205Z,12.75
2019-05-20T08:14:19.610Z,12.88
2019-05-20T08:16:21.633Z,13.07
2019-05-20T08:18:23.737Z,12.96
2019-05-20T08:20:26.005Z,12.80
2019-05-20T08:22:27.988Z,12.84
2019-05-20T08:24:29.990Z,12.88
2019-05-20T08:26:32.128Z,12.77
2019-05-20T08:28:34.411Z,12.82
2019-05-20T08:30:38.070Z,12.80
2019-05-20T08:32:40.431Z,12.92
2019-05-20T08:34:42.208Z,12.99
2019-05-20T08:36:44.260Z,13.12
2019-05-20T08:38:46.571Z,13.05
2019-05-20T08:40:49.045Z,13.11
2019-05-20T08:42:50.653Z,13.09
2019-05-20T08:44:54.021Z,12.96
2019-05-20T08:46:56.035Z,12.95
2019-05-20T08:48:58.307Z,12.90
2019-05-20T08:51:00.611Z,12.85
2019-05-20T08:53:02.702Z,12.78
2019-05-20T08:55:05.873Z,12.79
2019-05-20T08:57:08.213Z,12.88
2019-05-20T08:59:09.949Z,13.06
2019-05-20T09:01:12.594Z,13.14
2019-05-20T09:03:14.748Z,12.99
2019-05-20T09:05:17.011Z,13.02
2019-05-20T09:07:19.088Z,13.22
2019-05-20T09:09:21.472Z,13.38
2019-05-20T09:11:23.546Z,13.42
2019-05-20T09:13:25.807Z,13.24
2019-05-20T09:15:28.585Z,13.24
2019-05-20T09:17:31.204Z,13.26
2019-05-20T09:19:34.490Z,13.24
2019-05-20T09:21:36.470Z,13.04
2019-05-20T09:23:38.494Z,12.92
2019-05-20T09:25:40.529Z,13.12
2019-05-20T09:27:42.865Z,13.18
2019-05-20T09:29:45.196Z,13.18
2019-05-20T09:31:47.422Z,13.22
2019-05-20T09:33:50.070Z,13.31
2019-05-20T09:35:52.323Z,13.13
2019-05-20T09:37:54.324Z,13.18
2019-05-20T09:39:56.887Z,13.39
2019-05-20T09:41:58.555Z,13.59
2019-05-20T09:44:00.611Z,13.55
2019-05-20T09:46:07.814Z,13.48
2019-05-20T09:48:07.272Z,13.60
2019-05-20T09:50:09.609Z,13.35
2019-05-20T09:52:11.872Z,13.44
2019-05-20T09:54:13.926Z,13.46
2019-05-20T09:56:16.038Z,13.30
2019-05-20T09:58:18.117Z,13.44
2019-05-20T10:00:20.350Z,13.48
2019-05-20T10:02:22.647Z,13.18
2019-05-20T10:04:24.802Z,13.16
2019-05-20T10:06:27.268Z,13.28
2019-05-20T10:08:39.189Z,13.46
2019-05-20T10:10:33.454Z,13.58
2019-05-20T10:12:46.160Z,13.46
2019-05-20T10:14:39.437Z,13.62
2019-05-20T10:16:41.517Z,13.54
2019-05-20T10:18:43.601Z,13.51
2019-05-20T10:20:45.591Z,13.67
2019-05-20T10:22:48.167Z,13.58
2019-05-20T10:24:50.012Z,13.39
2019-05-20T10:26:52.215Z,13.33
2019-05-20T10:28:54.465Z,13.55
2019-05-20T10:30:56.577Z,13.60
2019-05-20T10:32:58.557Z,13.45
2019-05-20T10:35:00.835Z,13.46
2019-05-20T10:37:03.087Z,13.29
2019-05-20T10:39:07.923Z,13.45
2019-05-20T10:41:09.684Z,13.47
2019-05-20T10:43:11.719Z,13.51
2019-05-20T10:45:14.520Z,13.44
2019-05-20T10:47:16.716Z,13.38
2019-05-20T10:49:18.712Z,13.51
2019-05-20T10:51:20.778Z,13.50
2019-05-20T10:53:23.001Z,13.50
2019-05-20T10:55:27.152Z,13.61
2019-05-20T10:57:29.383Z,13.71
2019-05-20T10:59:31.750Z,13.88
2019-05-20T11:01:33.934Z,13.72
2019-05-20T11:03:35.987Z,13.58
2019-05-20T11:05:38.241Z,13.95
2019-05-20T11:07:40.288Z,13.98
2019-05-20T11:09:42.364Z,13.92
2019-05-20T11:11:44.536Z,14.03
2019-05-20T11:13:46.706Z,13.99
2019-05-20T11:15:48.771Z,13.94
2019-05-20T11:17:51.120Z,13.78
2019-05-20T11:19:53.198Z,13.86
2019-05-20T11:21:55.589Z,13.85
2019-05-20T11:23:57.928Z,13.83
2019-05-20T11:26:00.266Z,14.04
2019-05-20T11:28:01.954Z,13.99
2019-05-20T11:30:05.125Z,13.92
2019-05-20T11:32:07.141Z,13.89
2019-05-20T11:34:09.194Z,13.76
2019-05-20T11:36:11.527Z,13.56
2019-05-20T11:38:13.662Z,13.48
2019-05-20T11:40:16.190Z,13.53
2019-05-20T11:42:21.409Z,13.51
2019-05-20T11:44:24.194Z,13.46
2019-05-20T11:46:26.247Z,13.49
2019-05-20T11:48:28.720Z,13.54
2019-05-20T11:50:30.548Z,13.63
2019-05-20T11:52:33.703Z,13.61
2019-05-20T11:54:36.799Z,13.78
2019-05-20T11:56:38.918Z,13.93
2019-05-20T11:58:41.101Z,13.96
2019-05-20T12:00:43.361Z,13.94
2019-05-20T12:02:45.350Z,13.68
2019-05-20T12:04:47.546Z,13.76
2019-05-20T12:06:49.945Z,13.49
2019-05-20T12:08:51.980Z,13.76
2019-05-20T12:10:54.022Z,13.81
2019-05-20T12:12:56.438Z,13.94
2019-05-20T12:14:58.304Z,14.08
2019-05-20T12:17:00.719Z,14.28
2019-05-20T12:19:02.605Z,14.28
2019-05-20T12:21:04.798Z,14.22
2019-05-20T12:23:06.986Z,14.29
2019-05-20T12:25:09.447Z,14.20
2019-05-20T12:27:11.142Z,14.42
2019-05-20T12:29:13.263Z,14.08
2019-05-20T12:31:16.662Z,14.11
2019-05-20T12:33:19.700Z,13.98
2019-05-20T12:35:22.081Z,14.18
2019-05-20T12:37:24.470Z,14.34
2019-05-20T12:39:26.760Z,14.49
2019-05-20T12:41:28.679Z,14.33
2019-05-20T12:43:31.272Z,14.33
2019-05-20T12:45:34.637Z,14.54
2019-05-20T12:47:36.867Z,14.54
2019-05-20T12:49:39.095Z,14.56
2019-05-20T12:51:41.337Z,14.50
2019-05-20T12:53:43.372Z,14.54
2019-05-20T12:55:45.687Z,14.53
2019-05-20T12:57:47.695Z,14.19
2019-05-20T12:59:49.733Z,14.34
2019-05-20T13:01:51.980Z,14.19
2019-05-20T13:03:54.251Z,14.16
2019-05-20T13:05:56.227Z,14.09
2019-05-20T13:07:58.477Z,14.37
2019-05-20T13:10:03.006Z,14.40
2019-05-20T13:12:04.513Z,14.24
2019-05-20T13:14:07.728Z,14.27
2019-05-20T13:16:10.008Z,14.21
2019-05-20T13:18:12.033Z,14.00
2019-05-20T13:20:14.537Z,13.95
2019-05-20T13:22:16.476Z,13.97
2019-05-20T13:24:18.819Z,14.06
2019-05-20T13:26:20.914Z,13.91
2019-05-20T13:28:23.033Z,14.00
2019-05-20T13:30:25.206Z,14.15
2019-05-20T13:32:27.878Z,14.02
2019-05-20T13:34:29.539Z,13.84
2019-05-20T13:36:31.611Z,13.95
2019-05-20T13:38:33.816Z,13.98
2019-05-20T13:40:46.378Z,13.70
2019-05-20T13:42:40.912Z,13.88
2019-05-20T13:44:43.189Z,13.82
2019-05-20T13:46:45.269Z,13.79
2019-05-20T13:48:47.400Z,14.01
2019-05-20T13:50:49.761Z,14.10
2019-05-20T13:52:51.828Z,14.19
2019-05-20T13:54:53.945Z,14.19
2019-05-20T13:57:02.040Z,14.04
2019-05-20T13:59:05.189Z,13.85
2019-05-20T14:01:07.226Z,13.95
2019-05-20T14:03:09.519Z,13.97
2019-05-20T14:05:11.922Z,14.19
2019-05-20T14:07:14.012Z,14.12
2019-05-20T14:09:16.417Z,13.89
2019-05-20T14:11:26.665Z,13.90
2019-05-20T14:13:22.315Z,13.83
2019-05-20T14:15:24.555Z,13.83
2019-05-20T14:17:26.776Z,13.61
2019-05-20T14:19:28.962Z,13.52
2019-05-20T14:21:31.263Z,13.63
2019-05-20T14:23:34.405Z,13.72
2019-05-20T14:25:37.607Z,13.61
2019-05-20T14:27:40.009Z,13.62
2019-05-20T14:29:42.085Z,13.73
2019-05-20T14:31:45.945Z,13.81
2019-05-20T14:33:48.633Z,13.74
2019-05-20T14:35:50.907Z,13.87
2019-05-20T14:37:55.791Z,13.86
2019-05-20T14:39:58.571Z,13.89
2019-05-20T14:42:01.673Z,14.08
2019-05-20T14:44:03.783Z,14.19
2019-05-20T14:46:06.331Z,13.98
2019-05-20T14:48:08.209Z,14.11
2019-05-20T14:50:10.564Z,13.95
2019-05-20T14:52:12.952Z,13.91
2019-05-20T14:54:14.734Z,13.87
2019-05-20T14:56:17.494Z,13.91
2019-05-20T14:58:19.909Z,13.79
2019-05-20T15:00:21.770Z,13.96
2019-05-20T15:02:23.898Z,14.00
2019-05-20T15:04:26.433Z,13.95
2019-05-20T15:06:28.732Z,14.08
2019-05-20T15:08:34.272Z,14.21
2019-05-20T15:10:35.069Z,13.94
2019-05-20T15:12:37.480Z,13.72
2019-05-20T15:14:42.445Z,13.89
2019-05-20T15:16:43.618Z,13.90
2019-05-20T15:18:46.857Z,13.96
2019-05-20T15:20:48.907Z,14.04
2019-05-20T15:22:51.024Z,14.19
2019-05-20T15:24:53.124Z,13.95
2019-05-20T15:26:57.138Z,13.93
2019-05-20T15:28:59.383Z,13.90
2019-05-20T15:31:01.443Z,13.79
2019-05-20T15:33:03.705Z,14.04
2019-05-20T15:35:06.013Z,14.00
2019-05-20T15:37:08.088Z,14.03
2019-05-20T15:39:11.333Z,13.81
2019-05-20T15:41:13.997Z,13.79
2019-05-20T15:43:16.150Z,13.86
2019-05-20T15:45:18.463Z,13.86
2019-05-20T15:47:20.679Z,13.73
2019-05-20T15:49:22.955Z,13.64
2019-05-20T15:51:26.182Z,13.73
2019-05-20T15:53:28.519Z,13.79
2019-05-20T15:55:32.435Z,13.85
2019-05-20T15:57:34.805Z,13.99
2019-05-20T15:59:45.852Z,13.81
2019-05-20T16:01:41.192Z,13.65
2019-05-20T16:03:43.375Z,13.58
2019-05-20T16:05:45.723Z,13.54
2019-05-20T16:07:49.057Z,13.54
2019-05-20T16:09:51.318Z,13.65
2019-05-20T16:11:53.521Z,13.59
2019-05-20T16:13:55.581Z,13.60
2019-05-20T16:15:57.902Z,13.56
2019-05-20T16:18:00.081Z,13.64
2019-05-20T16:20:02.239Z,13.53
2019-05-20T16:22:06.613Z,13.59
2019-05-20T16:24:10.101Z,13.52
2019-05-20T16:26:11.870Z,13.43
2019-05-20T16:28:14.361Z,13.30
2019-05-20T16:30:16.348Z,13.18
2019-05-20T16:32:18.516Z,13.27
2019-05-20T16:34:21.969Z,13.30
2019-05-20T16:36:24.316Z,13.48
2019-05-20T16:38:26.339Z,13.30
2019-05-20T16:40:28.539Z,13.26
2019-05-20T16:42:30.807Z,13.09
2019-05-20T16:44:32.972Z,12.97
2019-05-20T16:46:35.273Z,13.04
2019-05-20T16:48:37.759Z,13.00
2019-05-20T16:50:39.819Z,12.89
2019-05-20T16:52:42.090Z,12.97
2019-05-20T16:54:44.612Z,12.94
2019-05-20T16:56:46.531Z,13.00
2019-05-20T16:58:48.710Z,13.01
2019-05-20T17:00:51.098Z,12.78
2019-05-20T17:02:52.845Z,12.78
2019-05-20T17:04:55.372Z,12.79
2019-05-20T17:06:57.486Z,12.88
2019-05-20T17:08:59.614Z,12.88
2019-05-20T17:11:01.686Z,13.04
2019-05-20T17:13:04.181Z,12.94
2019-05-20T17:15:06.224Z,13.00
2019-05-20T17:17:08.307Z,12.97
2019-05-20T17:19:10.579Z,12.83
2019-05-20T17:21:12.609Z,12.85
2019-05-20T17:23:14.744Z,12.72
2019-05-20T17:25:17.176Z,12.73
2019-05-20T17:27:18.822Z,12.73
2019-05-20T17:29:20.920Z,12.80
2019-05-20T17:31:23.262Z,12.55
2019-05-20T17:33:25.697Z,12.60
2019-05-20T17:35:27.369Z,12.51
2019-05-20T17:37:29.992Z,12.54
2019-05-20T17:39:32.190Z,12.63
2019-05-20T17:41:34.281Z,12.57
2019-05-20T17:43:36.596Z,12.60
2019-05-20T17:45:38.697Z,12.67
2019-05-20T17:47:40.835Z,12.64
2019-05-20T17:49:43.088Z,12.48
2019-05-20T17:51:45.201Z,12.53
2019-05-20T17:53:47.286Z,12.59
2019-05-20T17:55:49.533Z,12.44
2019-05-20T17:57:51.913Z,12.41
2019-05-20T17:59:55.427Z,12.44
2019-05-20T18:01:58.897Z,12.45
2019-05-20T18:04:00.576Z,12.51
2019-05-20T18:06:02.940Z,12.34
2019-05-20T18:08:06.311Z,12.32
2019-05-20T18:10:09.248Z,12.29
2019-05-20T18:12:11.375Z,12.27
2019-05-20T18:14:16.714Z,12.31
2019-05-20T18:16:18.797Z,12.30
2019-05-20T18:18:20.869Z,12.27
2019-05-20T18:20:23.696Z,12.22
2019-05-20T18:22:25.778Z,12.18
2019-05-20T18:24:27.858Z,12.14
2019-05-20T18:26:30.195Z,12.08
2019-05-20T18:28:32.221Z,12.14
2019-05-20T18:30:34.463Z,12.08
2019-05-20T18:32:38.539Z,12.06
2019-05-20T18:34:40.480Z,12.08
2019-05-20T18:36:42.709Z,12.01
2019-05-20T18:38:44.926Z,12.17
2019-05-20T18:40:46.944Z,12.10
2019-05-20T18:42:51.023Z,12.15
2019-05-20T18:44:53.386Z,12.14
2019-05-20T18:46:56.585Z,12.07
2019-05-20T18:48:58.690Z,12.01
2019-05-20T18:51:00.836Z,12.05
2019-05-20T18:53:02.926Z,12.08
2019-05-20T18:55:05.170Z,12.10
2019-05-20T18:57:08.720Z,12.09
2019-05-20T18:59:11.040Z,12.06
2019-05-20T19:01:13.136Z,12.01
2019-05-20T19:03:15.518Z,12.06
2019-05-20T19:05:17.783Z,12.03
2019-05-20T19:07:20.054Z,12.02
2019-05-20T19:09:22.733Z,12.07
2019-05-20T19:11:24.885Z,12.03
2019-05-20T19:13:26.940Z,12.08
2019-05-20T19:15:29.558Z,12.11
2019-05-20T19:17:31.775Z,11.98
2019-05-20T19:19:34.335Z,12.10
2019-05-20T19:21:36.171Z,12.12
2019-05-20T19:23:38.259Z,12.18
2019-05-20T19:25:40.319Z,12.02
2019-05-20T19:27:42.683Z,12.06
2019-05-20T19:29:45.017Z,11.96
2019-05-20T19:32:00.892Z,11.89
2019-05-20T19:33:52.076Z,11.84
2019-05-20T19:35:55.025Z,11.88
2019-05-20T19:37:59.966Z,11.82
2019-05-20T19:40:04.312Z,11.96
2019-05-20T19:42:08.762Z,11.97
2019-05-20T19:44:13.305Z,12.07
2019-05-20T19:46:16.768Z,12.01
2019-05-20T19:48:19.226Z,11.99
2019-05-20T19:50:21.050Z,11.86
2019-05-20T19:52:23.723Z,11.91
2019-05-20T19:54:25.569Z,11.98
2019-05-20T19:56:28.262Z,11.99
2019-05-20T19:58:30.184Z,11.99
2019-05-20T20:00:32.217Z,11.97
2019-05-20T20:02:35.390Z,11.94
2019-05-20T20:04:38.173Z,11.94
2019-05-20T20:06:40.212Z,11.91
2019-05-20T20:08:42.354Z,11.87
2019-05-20T20:10:44.632Z,11.92
2019-05-20T20:12:47.462Z,11.92
2019-05-20T20:14:49.622Z,11.83
2019-05-20T20:16:54.110Z,11.85
2019-05-20T20:18:58.135Z,11.88
2019-05-20T20:21:00.327Z,11.88
2019-05-20T20:23:02.551Z,11.83
2019-05-20T20:25:04.919Z,11.84
2019-05-20T20:27:07.177Z,11.82
2019-05-20T20:29:11.234Z,11.81
2019-05-20T20:31:13.489Z,11.75
2019-05-20T20:33:15.608Z,11.71
2019-05-20T20:35:18.081Z,11.82
2019-05-20T20:37:21.178Z,11.82
2019-05-20T20:39:23.265Z,11.65
2019-05-20T20:41:25.436Z,11.66
2019-05-20T20:43:32.109Z,11.62
2019-05-20T20:45:33.258Z,11.75
2019-05-20T20:47:41.633Z,11.76
2019-05-20T20:49:39.791Z,11.73
2019-05-20T20:51:41.831Z,11.69
2019-05-20T20:53:44.130Z,11.52
2019-05-20T20:55:46.139Z,11.50
2019-05-20T20:57:48.406Z,11.49
2019-05-20T20:59:50.627Z,11.55
2019-05-20T21:01:56.738Z,11.56
2019-05-20T21:03:56.584Z,11.53
2019-05-20T21:05:58.954Z,11.53
2019-05-20T21:08:00.682Z,11.60
2019-05-20T21:10:03.687Z,11.58
2019-05-20T21:12:06.364Z,11.56
2019-05-20T21:14:08.110Z,11.52
2019-05-20T21:16:10.364Z,11.51
2019-05-20T21:18:12.656Z,11.51
2019-05-20T21:20:14.741Z,11.50
2019-05-20T21:22:16.998Z,11.52
2019-05-20T21:24:19.256Z,11.54
2019-05-20T21:26:21.414Z,11.54
2019-05-20T21:28:23.493Z,11.47
2019-05-20T21:30:25.741Z,11.43
2019-05-20T21:32:27.741Z,11.61
2019-05-20T21:34:29.779Z,11.51
2019-05-20T21:36:46.463Z,11.45
2019-05-20T21:38:36.258Z,11.35
2019-05-20T21:40:38.285Z,11.42
2019-05-20T21:42:40.893Z,11.35
2019-05-20T21:44:43.120Z,11.41
2019-05-20T21:46:45.167Z,11.41
2019-05-20T21:48:47.690Z,11.47
2019-05-20T21:50:49.418Z,11.47
2019-05-20T21:52:51.605Z,11.39
2019-05-20T21:56:12.510Z,11.56
2019-05-20T21:58:14.278Z,11.44
2019-05-20T22:00:23.243Z,11.53
2019-05-20T22:02:27.830Z,11.54
2019-05-20T22:04:30.043Z,11.51
2019-05-20T22:06:32.338Z,11.54
2019-05-20T22:08:34.725Z,11.48
2019-05-20T22:10:36.801Z,11.51
2019-05-20T22:12:39.057Z,11.47
2019-05-20T22:14:41.526Z,11.52
2019-05-20T22:16:43.833Z,11.45
2019-05-20T22:18:45.994Z,11.52
2019-05-20T22:20:48.438Z,11.42
2019-05-20T22:23:09.648Z,11.48
2019-05-20T22:25:11.866Z,11.42
2019-05-20T22:27:14.358Z,11.38
2019-05-20T22:29:16.874Z,11.45
2019-05-20T22:31:18.936Z,11.44
2019-05-20T22:33:21.679Z,11.51
2019-05-20T22:35:24.897Z,11.55
2019-05-20T22:37:27.257Z,11.51
2019-05-20T22:39:29.713Z,11.52
2019-05-20T22:41:31.507Z,11.54
2019-05-20T22:43:33.948Z,11.58
2019-05-20T22:45:36.409Z,11.58
2019-05-20T22:47:38.863Z,11.61
2019-05-20T22:49:45.210Z,11.60
2019-05-20T22:51:51.916Z,11.56
2019-05-20T22:54:13.747Z,11.56
2019-05-20T22:56:15.016Z,11.61
2019-05-20T22:58:18.695Z,11.62
2019-05-20T23:00:20.893Z,11.56
2019-05-20T23:02:22.905Z,11.52
2019-05-20T23:04:25.310Z,11.54
2019-05-20T23:06:27.407Z,11.59
2019-05-20T23:08:29.713Z,11.61
2019-05-20T23:10:32.179Z,11.57
2019-05-20T23:12:33.929Z,11.54
2019-05-20T23:14:36.310Z,11.51
2019-05-20T23:16:38.894Z,11.53
2019-05-20T23:18:41.996Z,11.59
2019-05-20T23:20:44.149Z,11.61
2019-05-20T23:22:46.502Z,11.63
2019-05-20T23:24:48.641Z,11.63
2019-05-20T23:26:51.013Z,11.60
2019-05-20T23:28:52.861Z,11.63
2019-05-20T23:30:55.220Z,11.68
2019-05-20T23:32:57.883Z,11.72
2019-05-20T23:34:59.961Z,11.68
2019-05-20T23:37:02.141Z,11.78
2019-05-20T23:39:06.825Z,11.74
2019-05-20T23:41:09.255Z,11.83
2019-05-20T23:43:10.996Z,11.72
2019-05-20T23:45:14.255Z,11.72
2019-05-20T23:47:16.668Z,11.71
2019-05-20T23:49:18.583Z,11.72
2019-05-20T23:51:20.773Z,11.70
2019-05-20T23:53:23.155Z,11.66
2019-05-20T23:55:25.101Z,11.61
2019-05-20T23:57:27.363Z,11.59
2019-05-20T23:59:29.756Z,11.58
